createdAt,value
2023-02-19T00:02:05.880Z,28.04
2023-02-19T00:04:36.612Z,28.01
2023-02-19T00:07:07.373Z,28.07
2023-02-19T00:09:38.596Z,28.10
2023-02-19T00:12:09.294Z,28.14
2023-02-19T00:14:42.668Z,28.15
2023-02-19T00:17:13.353Z,28.20
2023-02-19T00:19:43.731Z,28.19
2023-02-19T00:22:14.696Z,28.18
2023-02-19T00:24:46.142Z,28.17
2023-02-19T00:27:18.073Z,28.18
2023-02-19T00:29:50.960Z,28.13
2023-02-19T00:32:21.970Z,28.13
2023-02-19T00:34:53.228Z,28.14
2023-02-19T00:37:23.691Z,28.10
2023-02-19T00:39:54.558Z,28.07
2023-02-19T00:42:28.973Z,28.04
2023-02-19T00:45:00.441Z,28.06
2023-02-19T00:47:31.362Z,28.01
2023-02-19T00:50:01.807Z,28.00
2023-02-19T00:52:32.630Z,28.00
2023-02-19T00:55:03.762Z,28.01
2023-02-19T00:57:34.784Z,27.97
2023-02-19T01:00:07.727Z,27.93
2023-02-19T01:02:38.794Z,27.93
2023-02-19T01:05:09.874Z,27.92
2023-02-19T01:07:43.693Z,27.91
2023-02-19T01:10:14.350Z,27.95
2023-02-19T01:12:45.987Z,27.81
2023-02-19T01:15:17.028Z,27.86
2023-02-19T01:17:48.602Z,27.83
2023-02-19T01:20:19.906Z,27.93
2023-02-19T01:22:50.521Z,27.93
2023-02-19T01:25:21.638Z,27.91
2023-02-19T01:27:52.567Z,27.95
2023-02-19T01:30:23.543Z,27.97
2023-02-19T01:32:54.292Z,27.94
2023-02-19T01:35:25.114Z,27.95
2023-02-19T01:37:55.811Z,27.96
2023-02-19T01:40:27.661Z,27.94
2023-02-19T01:42:58.845Z,27.96
2023-02-19T01:45:33.087Z,27.93
2023-02-19T01:48:11.759Z,27.89
2023-02-19T01:50:47.776Z,27.93
2023-02-19T01:53:21.091Z,27.88
2023-02-19T01:55:56.074Z,27.85
2023-02-19T01:58:38.106Z,27.89
2023-02-19T02:01:11.585Z,27.89
2023-02-19T02:03:44.208Z,27.86
2023-02-19T02:06:29.429Z,27.90
2023-02-19T02:09:19.459Z,27.88
2023-02-19T02:11:53.231Z,27.83
2023-02-19T02:14:27.706Z,27.89
2023-02-19T02:17:22.946Z,27.89
2023-02-19T02:20:10.969Z,27.86
2023-02-19T02:23:02.698Z,27.89
2023-02-19T02:25:52.897Z,27.93
2023-02-19T02:28:34.175Z,27.86
2023-02-19T02:31:09.352Z,27.86
2023-02-19T02:33:49.697Z,27.86
2023-02-19T02:36:31.950Z,27.88
2023-02-19T02:39:06.204Z,27.90
2023-02-19T02:42:10.560Z,27.90
2023-02-19T02:44:43.160Z,27.93
2023-02-19T02:47:34.625Z,27.90
2023-02-19T02:50:08.871Z,27.91
2023-02-19T02:52:59.699Z,27.90
2023-02-19T02:55:33.622Z,27.86
2023-02-19T02:58:05.170Z,27.93
2023-02-19T03:01:14.571Z,28.00
2023-02-19T03:03:47.421Z,28.02
2023-02-19T03:06:19.136Z,28.02
2023-02-19T03:09:06.940Z,28.01
2023-02-19T03:12:04.544Z,27.99
2023-02-19T03:15:06.892Z,27.97
2023-02-19T03:18:12.141Z,27.98
2023-02-19T03:20:47.096Z,27.93
2023-02-19T03:23:19.766Z,27.89
2023-02-19T03:26:05.811Z,27.92
2023-02-19T03:29:13.601Z,27.88
2023-02-19T03:31:47.034Z,27.84
2023-02-19T03:34:26.310Z,27.84
2023-02-19T03:37:08.127Z,27.82
2023-02-19T03:39:45.365Z,27.82
2023-02-19T03:42:25.018Z,27.80
2023-02-19T03:45:37.858Z,27.81
2023-02-19T03:48:39.303Z,27.78
2023-02-19T03:51:30.421Z,27.83
2023-02-19T03:54:30.138Z,27.80
2023-02-19T03:57:18.738Z,27.76
2023-02-19T04:00:20.346Z,27.77
2023-02-19T04:03:03.201Z,27.78
2023-02-19T04:05:36.714Z,27.78
2023-02-19T04:08:15.673Z,27.82
2023-02-19T04:10:52.316Z,27.82
2023-02-19T04:13:36.478Z,27.86
2023-02-19T04:16:14.768Z,27.80
2023-02-19T04:18:46.155Z,27.81
2023-02-19T04:21:18.160Z,27.80
2023-02-19T04:23:53.414Z,27.80
2023-02-19T04:26:24.752Z,27.82
2023-02-19T04:28:56.134Z,27.84
2023-02-19T04:31:29.409Z,27.86
2023-02-19T04:34:00.501Z,27.87
2023-02-19T04:36:35.501Z,27.84
2023-02-19T04:39:06.825Z,27.86
2023-02-19T04:41:37.406Z,27.90
2023-02-19T04:44:08.405Z,27.94
2023-02-19T04:46:38.710Z,27.90
2023-02-19T04:49:09.593Z,27.95
2023-02-19T04:51:40.741Z,27.95
2023-02-19T04:54:11.347Z,27.99
2023-02-19T04:56:42.330Z,28.00
2023-02-19T04:59:13.902Z,28.06
2023-02-19T05:01:53.551Z,28.01
2023-02-19T05:04:24.934Z,28.02
2023-02-19T05:06:55.823Z,28.00
2023-02-19T05:09:26.955Z,28.00
2023-02-19T05:11:57.929Z,27.98
2023-02-19T05:14:28.828Z,27.95
2023-02-19T05:16:59.654Z,27.92
2023-02-19T05:19:30.704Z,27.97
2023-02-19T05:22:01.908Z,27.94
2023-02-19T05:24:32.626Z,27.94
2023-02-19T05:27:03.259Z,27.94
2023-02-19T05:29:34.249Z,27.95
2023-02-19T05:32:05.415Z,27.94
2023-02-19T05:34:36.689Z,27.94
2023-02-19T05:37:07.486Z,27.94
2023-02-19T05:39:38.146Z,27.92
2023-02-19T05:42:09.342Z,27.91
2023-02-19T05:44:40.177Z,27.94
2023-02-19T05:47:11.262Z,27.93
2023-02-19T05:49:42.240Z,27.98
2023-02-19T05:52:13.207Z,28.06
2023-02-19T05:54:43.564Z,28.09
2023-02-19T05:57:14.248Z,28.09
2023-02-19T05:59:45.228Z,28.14
2023-02-19T06:02:16.136Z,28.19
2023-02-19T06:04:47.863Z,28.19
2023-02-19T06:07:18.692Z,28.19
2023-02-19T06:09:52.570Z,28.21
2023-02-19T06:12:23.538Z,28.17
2023-02-19T06:15:05.382Z,28.19
2023-02-19T06:17:36.712Z,28.19
2023-02-19T06:20:07.921Z,28.21
2023-02-19T06:22:38.688Z,28.18
2023-02-19T06:25:13.538Z,28.21
2023-02-19T06:27:43.953Z,28.21
2023-02-19T06:30:14.924Z,28.20
2023-02-19T06:32:46.012Z,28.23
2023-02-19T06:35:17.088Z,28.26
2023-02-19T06:37:54.372Z,28.28
2023-02-19T06:40:25.263Z,28.34
2023-02-19T06:42:56.581Z,28.34
2023-02-19T06:45:26.884Z,28.37
2023-02-19T06:47:58.097Z,28.40
2023-02-19T06:50:28.431Z,28.43
2023-02-19T06:52:59.108Z,28.43
2023-02-19T06:55:29.832Z,28.48
2023-02-19T06:58:00.605Z,28.52
2023-02-19T07:00:31.484Z,28.58
2023-02-19T07:03:04.479Z,28.61
2023-02-19T07:05:36.673Z,28.67
2023-02-19T07:08:07.949Z,28.71
2023-02-19T07:10:38.818Z,28.76
2023-02-19T07:13:09.922Z,28.85
2023-02-19T07:15:40.802Z,28.89
2023-02-19T07:18:11.441Z,28.90
2023-02-19T07:20:42.085Z,28.89
2023-02-19T07:23:23.673Z,28.90
2023-02-19T07:25:55.208Z,28.86
2023-02-19T07:28:26.780Z,28.85
2023-02-19T07:31:02.805Z,28.85
2023-02-19T07:33:33.593Z,28.83
2023-02-19T07:36:05.118Z,28.79
2023-02-19T07:38:35.776Z,28.84
2023-02-19T07:41:07.410Z,28.84
2023-02-19T07:43:39.362Z,28.79
2023-02-19T07:46:13.047Z,28.80
2023-02-19T07:48:45.435Z,28.77
2023-02-19T07:51:19.974Z,28.81
2023-02-19T07:53:51.908Z,28.78
2023-02-19T07:56:23.267Z,28.78
2023-02-19T07:58:53.924Z,28.79
2023-02-19T08:01:44.542Z,28.73
2023-02-19T08:04:16.777Z,28.72
2023-02-19T08:06:47.479Z,28.72
2023-02-19T08:09:21.056Z,28.67
2023-02-19T08:12:11.116Z,28.65
2023-02-19T08:14:42.145Z,28.68
2023-02-19T08:17:12.740Z,28.70
2023-02-19T08:19:44.081Z,28.74
2023-02-19T08:22:22.841Z,28.83
2023-02-19T08:24:53.757Z,28.80
2023-02-19T08:27:25.001Z,28.87
2023-02-19T08:29:56.200Z,28.88
2023-02-19T08:32:26.905Z,28.86
2023-02-19T08:34:57.865Z,28.71
2023-02-19T08:37:29.207Z,28.81
2023-02-19T08:39:59.742Z,28.82
2023-02-19T08:42:30.992Z,28.82
2023-02-19T08:45:01.677Z,28.83
2023-02-19T08:47:35.064Z,28.83
2023-02-19T08:50:07.781Z,28.78
2023-02-19T08:52:38.641Z,28.76
2023-02-19T08:55:10.085Z,28.74
2023-02-19T08:57:42.672Z,28.70
2023-02-19T09:00:17.242Z,28.70
2023-02-19T09:02:49.081Z,28.67
2023-02-19T09:05:20.027Z,28.70
2023-02-19T09:07:50.621Z,28.68
2023-02-19T09:10:21.505Z,28.71
2023-02-19T09:12:52.232Z,28.74
2023-02-19T09:15:23.297Z,28.70
2023-02-19T09:17:57.077Z,28.68
2023-02-19T09:20:27.542Z,28.71
2023-02-19T09:23:03.631Z,28.70
2023-02-19T09:25:34.940Z,28.69
2023-02-19T09:28:06.132Z,28.67
2023-02-19T09:30:36.937Z,28.67
2023-02-19T09:33:07.899Z,28.65
2023-02-19T09:35:41.514Z,28.64
2023-02-19T09:38:12.420Z,28.67
2023-02-19T09:40:45.822Z,28.62
2023-02-19T09:43:26.425Z,28.59
2023-02-19T09:46:06.066Z,28.59
2023-02-19T09:48:37.310Z,28.58
2023-02-19T09:51:10.478Z,28.56
2023-02-19T09:53:48.518Z,28.47
2023-02-19T09:56:21.474Z,28.55
2023-02-19T09:58:55.117Z,28.57
2023-02-19T10:01:28.280Z,28.54
2023-02-19T10:03:59.442Z,28.53
2023-02-19T10:06:31.279Z,28.53
2023-02-19T10:09:15.580Z,28.53
2023-02-19T10:11:47.200Z,28.52
2023-02-19T10:14:44.580Z,28.49
2023-02-19T10:17:32.443Z,28.53
2023-02-19T10:20:07.173Z,28.47
2023-02-19T10:22:38.956Z,28.48
2023-02-19T10:25:15.804Z,28.48
2023-02-19T10:27:47.118Z,28.48
2023-02-19T10:30:26.410Z,28.47
2023-02-19T10:33:18.029Z,28.50
2023-02-19T10:36:09.307Z,28.45
2023-02-19T10:38:48.426Z,28.45
2023-02-19T10:41:24.078Z,28.41
2023-02-19T10:44:18.736Z,28.45
2023-02-19T10:47:00.091Z,28.40
2023-02-19T10:49:44.952Z,28.45
2023-02-19T10:52:37.547Z,28.51
2023-02-19T10:55:31.480Z,28.47
2023-02-19T10:58:28.999Z,28.51
2023-02-19T11:01:23.086Z,28.50
2023-02-19T11:04:14.936Z,28.44
2023-02-19T11:06:46.876Z,28.47
2023-02-19T11:09:28.710Z,28.43
2023-02-19T11:12:00.435Z,28.40
2023-02-19T11:14:32.506Z,28.41
2023-02-19T11:17:06.489Z,28.36
2023-02-19T11:19:37.723Z,28.37
2023-02-19T11:22:31.363Z,28.39
2023-02-19T11:25:05.918Z,28.36
2023-02-19T11:27:37.021Z,28.38
2023-02-19T11:30:36.670Z,28.36
2023-02-19T11:33:25.668Z,28.37
2023-02-19T11:36:19.081Z,28.33
2023-02-19T11:38:50.692Z,28.29
2023-02-19T11:41:46.184Z,28.34
2023-02-19T11:44:37.963Z,28.28
2023-02-19T11:47:41.878Z,28.28
2023-02-19T11:50:46.337Z,28.27
2023-02-19T11:53:28.966Z,28.28
2023-02-19T11:56:22.809Z,28.28
2023-02-19T11:59:02.551Z,28.29
2023-02-19T12:02:00.409Z,28.29
2023-02-19T12:04:58.081Z,28.13
2023-02-19T14:39:49.498Z,27.95
2023-02-19T14:42:24.532Z,27.95
2023-02-19T14:45:00.858Z,27.94
2023-02-19T14:47:35.928Z,27.97
2023-02-19T14:50:18.895Z,27.97
2023-02-19T14:52:58.914Z,27.98
2023-02-19T14:55:34.861Z,27.93
2023-02-19T14:58:18.404Z,27.98
2023-02-19T15:00:49.150Z,27.98
2023-02-19T15:03:50.082Z,28.01
2023-02-19T15:06:21.429Z,27.93
2023-02-19T15:08:55.789Z,27.95
2023-02-19T15:11:28.545Z,27.93
2023-02-19T15:14:01.379Z,27.94
2023-02-19T15:16:36.235Z,27.92
2023-02-19T15:19:09.677Z,27.94
2023-02-19T15:21:42.986Z,27.95
2023-02-19T15:24:16.181Z,27.93
2023-02-19T15:26:51.920Z,27.96
2023-02-19T15:29:25.469Z,27.97
2023-02-19T15:32:01.769Z,27.94
2023-02-19T15:34:33.995Z,27.95
2023-02-19T15:37:08.782Z,27.97
2023-02-19T15:39:47.372Z,27.95
2023-02-19T15:42:34.374Z,27.95
2023-02-19T15:45:17.705Z,27.96
2023-02-19T15:48:00.306Z,27.94
2023-02-19T15:50:36.255Z,27.95
2023-02-19T15:53:23.462Z,27.97
2023-02-19T15:56:01.921Z,27.95
2023-02-19T15:58:45.067Z,27.91
2023-02-19T16:01:26.337Z,27.93
2023-02-19T16:03:57.860Z,27.92
2023-02-19T16:06:29.212Z,27.91
2023-02-19T16:09:06.622Z,27.90
2023-02-19T16:11:37.148Z,27.93
2023-02-19T16:14:33.666Z,27.90
2023-02-19T16:17:14.540Z,27.85
2023-02-19T16:19:45.133Z,27.84
2023-02-19T16:22:20.299Z,27.85
2023-02-19T16:24:53.240Z,27.83
2023-02-19T16:27:37.997Z,27.86
2023-02-19T16:30:13.044Z,27.85
2023-02-19T16:32:45.239Z,27.85
2023-02-19T16:35:53.132Z,27.86
2023-02-19T16:38:23.744Z,27.74
2023-02-19T16:41:05.760Z,27.71
2023-02-19T16:43:44.823Z,27.66
2023-02-19T16:46:15.903Z,27.61
2023-02-19T16:48:50.285Z,27.57
2023-02-19T16:51:27.614Z,27.56
2023-02-19T16:53:58.707Z,27.55
2023-02-19T16:56:32.044Z,27.52
2023-02-19T16:59:02.578Z,27.53
2023-02-19T17:01:33.359Z,27.51
2023-02-19T17:04:09.967Z,27.47
2023-02-19T17:06:41.007Z,27.45
2023-02-19T17:09:11.587Z,27.44
2023-02-19T17:11:43.272Z,27.45
2023-02-19T17:14:13.832Z,27.42
2023-02-19T17:16:44.300Z,27.41
2023-02-19T17:19:19.106Z,27.39
2023-02-19T17:21:49.494Z,27.39
2023-02-19T17:24:20.373Z,27.36
2023-02-19T17:26:51.206Z,27.39
2023-02-19T17:29:24.435Z,27.37
2023-02-19T17:31:54.862Z,27.35
2023-02-19T17:34:28.217Z,27.35
2023-02-19T17:36:59.138Z,27.33
2023-02-19T17:39:29.398Z,27.34
2023-02-19T17:41:59.767Z,27.33
2023-02-19T17:44:30.340Z,27.33
2023-02-19T17:47:00.902Z,27.34
2023-02-19T17:49:32.046Z,27.30
2023-02-19T17:52:02.344Z,27.32
2023-02-19T17:54:32.688Z,27.26
2023-02-19T17:57:03.080Z,27.27
2023-02-19T17:59:33.376Z,27.28
2023-02-19T18:02:04.365Z,27.27
2023-02-19T18:04:36.617Z,27.26
2023-02-19T18:07:07.237Z,27.25
2023-02-19T18:09:38.463Z,27.24
2023-02-19T18:12:09.182Z,27.23
2023-02-19T18:14:40.092Z,27.24
2023-02-19T18:17:11.247Z,27.22
2023-02-19T18:19:45.900Z,27.20
2023-02-19T18:22:16.472Z,27.19
2023-02-19T18:24:48.597Z,27.19
2023-02-19T18:27:21.193Z,27.17
2023-02-19T18:29:55.822Z,27.19
2023-02-19T18:32:26.882Z,27.16
2023-02-19T18:34:59.126Z,27.15
2023-02-19T18:37:34.804Z,27.16
2023-02-19T18:40:06.489Z,27.13
2023-02-19T18:42:36.832Z,27.12
2023-02-19T18:45:07.289Z,27.16
2023-02-19T18:47:37.880Z,27.13
2023-02-19T18:50:10.665Z,27.13
2023-02-19T18:52:42.545Z,27.14
2023-02-19T18:55:13.746Z,27.14
2023-02-19T18:57:45.060Z,27.11
2023-02-19T19:00:21.676Z,27.13
2023-02-19T19:02:52.209Z,27.12
2023-02-19T19:05:23.842Z,27.11
2023-02-19T19:07:56.224Z,27.08
2023-02-19T19:10:27.496Z,27.09
2023-02-19T19:12:58.612Z,27.05
2023-02-19T19:15:29.726Z,27.05
2023-02-19T19:18:00.945Z,27.11
2023-02-19T19:20:32.396Z,27.05
2023-02-19T19:23:03.523Z,27.05
2023-02-19T19:25:33.907Z,27.06
2023-02-19T19:28:04.758Z,27.04
2023-02-19T19:30:35.407Z,27.04
2023-02-19T19:33:06.251Z,27.01
2023-02-19T19:35:36.567Z,27.01
2023-02-19T19:38:07.111Z,27.03
2023-02-19T19:40:38.298Z,27.02
2023-02-19T19:43:08.470Z,27.03
2023-02-19T19:45:39.554Z,26.99
2023-02-19T19:48:10.700Z,27.01
2023-02-19T19:50:41.669Z,26.98
2023-02-19T19:53:14.811Z,26.97
2023-02-19T19:55:45.821Z,26.97
2023-02-19T19:58:23.686Z,26.99
2023-02-19T20:00:54.595Z,26.98
2023-02-19T20:03:25.202Z,26.96
2023-02-19T20:05:55.749Z,26.95
2023-02-19T20:08:26.444Z,26.97
2023-02-19T20:10:56.760Z,26.96
2023-02-19T20:13:30.226Z,26.95
2023-02-19T20:16:00.564Z,26.95
2023-02-19T20:18:31.542Z,26.95
2023-02-19T20:21:02.464Z,26.94
2023-02-19T20:23:34.266Z,26.93
2023-02-19T20:26:06.329Z,26.91
2023-02-19T20:28:37.249Z,26.90
2023-02-19T20:31:10.187Z,26.89
2023-02-19T20:33:41.031Z,26.90
2023-02-19T20:36:11.613Z,26.91
2023-02-19T20:38:44.542Z,26.89
2023-02-19T20:41:17.846Z,26.86
2023-02-19T20:43:48.549Z,26.87
2023-02-19T20:46:19.019Z,26.87
2023-02-19T20:48:51.608Z,26.85
2023-02-19T20:51:22.789Z,26.85
2023-02-19T20:53:53.816Z,26.84
2023-02-19T20:56:24.665Z,26.84
2023-02-19T20:58:55.299Z,26.84
2023-02-19T21:01:28.940Z,26.84
2023-02-19T21:03:59.484Z,26.83
2023-02-19T21:06:29.780Z,26.83
2023-02-19T21:09:00.825Z,26.83
2023-02-19T21:11:31.364Z,26.81
2023-02-19T21:14:01.977Z,26.79
2023-02-19T21:16:33.600Z,26.78
2023-02-19T21:19:04.138Z,26.80
2023-02-19T21:21:36.321Z,26.80
2023-02-19T21:24:07.440Z,26.79
2023-02-19T21:26:39.878Z,26.80
2023-02-19T21:29:14.861Z,26.75
2023-02-19T21:31:47.687Z,26.77
2023-02-19T21:34:20.900Z,26.78
2023-02-19T21:36:51.594Z,26.79
2023-02-19T21:39:23.999Z,26.79
2023-02-19T21:42:10.382Z,26.80
2023-02-19T21:44:43.248Z,26.77
2023-02-19T21:47:16.129Z,26.78
2023-02-19T21:49:47.018Z,26.79
2023-02-19T21:52:17.679Z,26.74
2023-02-19T21:54:48.514Z,26.75
2023-02-19T21:57:18.986Z,26.77
2023-02-19T21:59:49.376Z,26.76
2023-02-19T22:02:23.088Z,26.75
2023-02-19T22:04:55.216Z,26.75
2023-02-19T22:07:26.841Z,26.75
2023-02-19T22:09:59.486Z,26.76
2023-02-19T22:12:30.651Z,26.72
2023-02-19T22:15:01.353Z,26.73
2023-02-19T22:17:31.447Z,26.75
2023-02-19T22:20:01.979Z,26.74
2023-02-19T22:22:32.298Z,26.75
2023-02-19T22:25:02.803Z,26.75
2023-02-19T22:27:33.696Z,26.73
2023-02-19T22:30:06.364Z,26.72
2023-02-19T22:32:36.998Z,26.75
2023-02-19T22:35:07.759Z,26.76
2023-02-19T22:37:38.727Z,26.83
2023-02-19T22:40:10.664Z,26.85
2023-02-19T22:42:41.024Z,26.81
2023-02-19T22:45:13.123Z,26.85
2023-02-19T22:47:45.583Z,26.86
2023-02-19T22:50:20.949Z,26.89
2023-02-19T22:52:55.805Z,26.92
2023-02-19T22:55:26.249Z,26.93
2023-02-19T22:57:57.540Z,26.98
2023-02-19T23:00:27.980Z,26.90
2023-02-19T23:02:58.672Z,26.93
2023-02-19T23:05:29.929Z,26.97
2023-02-19T23:08:00.278Z,26.95
2023-02-19T23:10:34.028Z,26.98
2023-02-19T23:13:04.660Z,26.98
2023-02-19T23:15:35.008Z,27.00
2023-02-19T23:18:07.122Z,27.02
2023-02-19T23:20:37.428Z,27.03
2023-02-19T23:23:08.058Z,26.98
2023-02-19T23:25:39.270Z,27.04
2023-02-19T23:28:09.713Z,27.05
2023-02-19T23:30:40.228Z,26.99
2023-02-19T23:33:11.227Z,27.03
2023-02-19T23:35:41.567Z,27.06
2023-02-19T23:38:12.214Z,27.04
2023-02-19T23:40:42.837Z,27.01
2023-02-19T23:43:13.620Z,27.05
2023-02-19T23:45:43.929Z,27.07
2023-02-19T23:48:14.824Z,27.07
2023-02-19T23:50:46.477Z,27.08
2023-02-19T23:53:17.178Z,27.04
2023-02-19T23:55:48.286Z,27.13
2023-02-19T23:58:19.325Z,27.13
